Time;durP1;ratioP1;P1;durP2;ratioP2;P2;SDS_P1;SDS_P2;PMS_P1;PMS_P2;Temp;Humidity;BMP_temperature;BMP_pressure;BME280_temperature;BME280_humidity;BME280_pressure;Samples;Min_cycle;Max_cycle;Signal;HPM_P1;HPM_P2
2022/09/26 00:01:18;;;;;;;18.90;15.65;;;;;;;14.45;61.43;100408.78;5012254;28;20108;-64
2022/09/26 00:03:45;;;;;;;19.48;15.43;;;;;;;14.35;62.26;100399.06;5012001;28;20026;-67
2022/09/26 00:06:11;;;;;;;21.95;14.43;;;;;;;14.35;62.88;100401.66;5008504;28;20022;-64
2022/09/26 00:08:38;;;;;;;19.58;13.73;;;;;;;14.23;63.38;100395.38;5011927;28;20401;-65
2022/09/26 00:11:07;;;;;;;17.02;13.90;;;;;;;14.19;64.00;100390.06;5012023;28;20116;-65
2022/09/26 00:13:35;;;;;;;18.98;14.73;;;;;;;14.20;64.32;100384.03;5009708;28;20021;-64
2022/09/26 00:16:02;;;;;;;18.30;14.23;;;;;;;14.23;64.33;100395.38;5009659;28;20027;-64
2022/09/26 00:18:27;;;;;;;19.83;13.60;;;;;;;14.34;64.48;100390.41;5011642;28;20076;-64
2022/09/26 00:21:01;;;;;;;16.90;13.80;;;;;;;14.32;64.38;100367.84;5011527;28;20030;-64
2022/09/26 00:23:26;;;;;;;18.23;14.23;;;;;;;14.54;63.97;100382.09;5011792;28;20473;-65
2022/09/26 00:25:52;;;;;;;18.17;13.55;;;;;;;14.47;63.69;100383.72;5011700;28;20036;-63
2022/09/26 00:28:18;;;;;;;15.35;12.27;;;;;;;14.36;63.01;100385.22;5011738;28;20018;-63
2022/09/26 00:30:44;;;;;;;16.35;12.30;;;;;;;14.30;62.18;100395.50;5011308;28;20034;-63
2022/09/26 00:33:11;;;;;;;18.95;12.60;;;;;;;14.34;62.68;100398.19;5011639;28;20022;-65
2022/09/26 00:35:36;;;;;;;16.48;13.10;;;;;;;14.39;63.33;100396.56;5011252;28;20080;-67
2022/09/26 00:38:02;;;;;;;16.75;13.15;;;;;;;14.49;63.39;100396.72;5011293;28;20481;-64
2022/09/26 00:40:29;;;;;;;16.08;12.52;;;;;;;14.50;63.41;100394.16;5011225;28;20476;-66
2022/09/26 00:42:54;;;;;;;19.35;13.40;;;;;;;14.59;63.11;100395.19;5011391;28;20014;-65
2022/09/26 00:45:23;;;;;;;16.55;12.48;;;;;;;14.57;63.03;100400.38;4993296;28;20046;-64
2022/09/26 00:47:58;;;;;;;16.15;12.63;;;;;;;14.59;62.25;100397.78;5011120;28;20112;-66
2022/09/26 00:50:36;;;;;;;18.15;13.15;;;;;;;14.48;60.75;100393.28;5011478;28;20489;-69
2022/09/26 00:53:22;;;;;;;14.18;11.93;;;;;;;14.13;60.54;100348.41;5011809;28;20034;-65
2022/09/26 00:55:57;;;;;;;14.90;12.98;;;;;;;14.32;61.58;100394.69;5026867;28;20025;-66
2022/09/26 00:58:28;;;;;;;19.60;14.45;;;;;;;14.13;63.42;100402.91;5010983;28;20050;-65
2022/09/26 01:00:55;;;;;;;17.73;14.00;;;;;;;14.07;63.63;100388.97;5011738;28;20030;-67
2022/09/26 01:03:22;;;;;;;18.75;14.20;;;;;;;14.01;63.81;100387.97;5011653;28;20435;-64
2022/09/26 01:05:48;;;;;;;18.05;13.45;;;;;;;13.98;64.16;100382.69;5010406;28;20412;-63
2022/09/26 01:08:16;;;;;;;18.70;14.15;;;;;;;13.97;64.33;100392.22;5010848;28;20053;-69
2022/09/26 01:10:44;;;;;;;18.30;13.70;;;;;;;13.17;65.29;100294.41;5010145;28;20051;-63
2022/09/26 01:13:09;;;;;;;17.02;14.18;;;;;;;13.58;67.17;100399.13;5010105;28;20033;-64
2022/09/26 01:15:35;;;;;;;15.57;11.52;;;;;;;13.37;68.32;100415.06;5011404;28;20030;-62
2022/09/26 01:18:01;;;;;;;14.60;10.50;;;;;;;13.22;68.79;100409.44;4997407;28;20615;-61
2022/09/26 01:21:02;;;;;;;13.35;11.23;;;;;;;13.31;69.11;100409.69;5026503;28;20511;-63
2022/09/26 01:23:59;;;;;;;16.20;10.65;;;;;;;13.44;68.93;100397.91;5008227;28;20046;-62
2022/09/26 01:26:36;;;;;;;15.38;11.70;;;;;;;13.43;68.50;100394.47;5008644;28;20076;-68
2022/09/26 01:29:29;;;;;;;14.68;11.10;;;;;;;13.38;68.35;100372.72;5008469;28;20092;-67
2022/09/26 01:32:48;;;;;;;15.60;12.13;;;;;;;13.35;67.60;100389.91;5008108;28;20042;-62
2022/09/26 01:35:20;;;;;;;20.15;13.45;;;;;;;13.32;67.19;100382.94;4912494;29;20123;-63
2022/09/26 01:37:54;;;;;;;16.40;12.60;;;;;;;13.08;68.27;100355.56;4912512;29;20043;-68
2022/09/26 01:40:44;;;;;;;20.00;13.50;;;;;;;13.38;68.21;100385.69;4912366;29;20036;-65
2022/09/26 01:43:29;;;;;;;17.63;12.48;;;;;;;13.46;67.86;100383.28;4912352;29;20031;-66
2022/09/26 01:46:18;;;;;;;17.98;13.60;;;;;;;13.48;67.67;100383.31;4912234;29;20055;-65
2022/09/26 01:48:50;;;;;;;13.93;11.48;;;;;;;13.49;67.18;100378.16;4912275;29;20047;-62
2022/09/26 01:51:29;;;;;;;14.70;11.57;;;;;;;13.26;66.20;100375.00;4912014;29;20594;-67
2022/09/26 01:54:00;;;;;;;16.55;12.05;;;;;;;13.29;67.63;100374.19;4912184;29;20040;-64
2022/09/26 01:56:28;;;;;;;12.98;9.93;;;;;;;13.36;65.53;100386.47;4912037;29;20109;-64
2022/09/26 01:59:00;;;;;;;14.30;9.35;;;;;;;13.32;65.80;100379.44;4912014;29;20113;-66
2022/09/26 02:01:29;;;;;;;12.05;9.60;;;;;;;13.28;66.82;100383.66;4928746;29;20043;-63
2022/09/26 02:04:00;;;;;;;12.13;8.80;;;;;;;13.29;66.82;100389.75;4931096;29;20498;-63
2022/09/26 02:06:36;;;;;;;10.80;8.80;;;;;;;13.01;67.22;100340.69;4946846;29;20043;-62
2022/09/26 02:09:14;;;;;;;10.57;8.15;;;;;;;13.30;66.13;100382.00;4915160;29;20036;-64
2022/09/26 02:11:44;;;;;;;10.15;8.27;;;;;;;13.30;67.12;100394.97;4936629;28;20042;-65
2022/09/26 02:14:16;;;;;;;12.88;9.02;;;;;;;12.91;68.17;100395.69;5010857;28;20026;-63
2022/09/26 02:16:51;;;;;;;12.48;8.95;;;;;;;12.72;69.54;100410.78;5010905;28;20034;-66
2022/09/26 02:19:25;;;;;;;11.93;9.73;;;;;;;12.47;71.38;100393.66;5010860;28;20642;-63
2022/09/26 02:21:51;;;;;;;11.75;10.50;;;;;;;12.53;71.49;100406.78;5010588;28;20034;-63
2022/09/26 02:24:17;;;;;;;12.88;10.68;;;;;;;12.63;70.60;100407.91;5010610;28;20056;-63
2022/09/26 02:26:43;;;;;;;13.80;10.57;;;;;;;12.62;70.13;100381.16;5010493;28;20033;-64
2022/09/26 02:29:11;;;;;;;12.68;10.90;;;;;;;12.72;69.33;100402.09;5010588;28;20459;-66
2022/09/26 02:31:41;;;;;;;14.02;11.68;;;;;;;12.66;69.63;100376.03;5010673;28;20073;-63
2022/09/26 02:34:07;;;;;;;13.95;11.10;;;;;;;12.70;69.78;100380.47;5010611;28;20026;-66
2022/09/26 02:36:33;;;;;;;16.00;11.32;;;;;;;12.60;69.60;100353.47;5010162;28;20109;-64
2022/09/26 02:39:00;;;;;;;12.88;11.20;;;;;;;12.83;69.04;100373.91;5009527;28;20030;-64
2022/09/26 02:41:36;;;;;;;13.07;10.70;;;;;;;12.87;68.68;100373.13;5009749;28;20030;-65
2022/09/26 02:44:19;;;;;;;13.75;11.52;;;;;;;12.94;68.22;100375.06;5008213;28;20100;-63
2022/09/26 02:46:57;;;;;;;15.50;10.95;;;;;;;13.00;67.57;100367.44;5010276;28;20049;-64
2022/09/26 02:49:48;;;;;;;14.70;10.60;;;;;;;13.00;66.90;100362.25;5010447;28;20041;-64
2022/09/26 02:52:47;;;;;;;15.40;11.75;;;;;;;12.83;66.75;100359.22;5010598;28;20034;-66
2022/09/26 02:55:47;;;;;;;14.93;11.07;;;;;;;12.76;67.66;100362.47;5010371;28;20048;-64
2022/09/26 02:58:36;;;;;;;12.23;10.18;;;;;;;12.61;68.47;100369.03;5010423;28;20036;-67
2022/09/26 03:01:17;;;;;;;;;;;;;;;12.52;69.11;100363.59;5010668;28;20034;-68
2022/09/26 03:04:21;;;;;;;12.32;10.38;;;;;;;12.51;69.38;100374.81;5010441;28;19957;-64
2022/09/26 03:06:54;;;;;;;16.75;10.82;;;;;;;12.37;70.15;100374.41;4988183;28;20042;-66
2022/09/26 03:09:22;;;;;;;11.88;10.30;;;;;;;12.20;70.14;100332.53;4987993;28;20134;-63
2022/09/26 03:11:49;;;;;;;12.93;10.10;;;;;;;12.44;69.80;100372.88;4990806;28;20045;-66
2022/09/26 03:14:16;;;;;;;12.93;9.90;;;;;;;12.07;69.69;100297.63;4992084;28;20405;-64
2022/09/26 03:16:44;;;;;;;12.73;9.80;;;;;;;12.55;69.53;100378.34;4992141;28;20042;-65
2022/09/26 03:19:26;;;;;;;13.32;10.65;;;;;;;12.61;69.17;100373.31;4991786;28;20030;-63
2022/09/26 03:21:53;;;;;;;12.93;10.20;;;;;;;12.62;69.21;100372.47;4991715;28;20543;-68
2022/09/26 03:24:18;;;;;;;12.35;9.40;;;;;;;12.57;69.17;100359.44;4991736;28;20045;-63
2022/09/26 03:26:45;;;;;;;12.95;9.73;;;;;;;12.63;69.56;100363.88;4991758;28;20031;-63
2022/09/26 03:29:11;;;;;;;12.13;9.73;;;;;;;12.18;69.86;100317.78;4991463;28;20412;-64
2022/09/26 03:31:36;;;;;;;13.13;9.77;;;;;;;12.44;69.96;100365.97;4991562;28;20536;-64
2022/09/26 03:34:02;;;;;;;12.15;8.93;;;;;;;12.48;70.64;100371.25;4975207;28;20038;-69
2022/09/26 03:36:28;;;;;;;11.43;9.32;;;;;;;12.40;70.87;100358.97;4991507;28;20038;-66
2022/09/26 03:38:53;;;;;;;11.63;9.18;;;;;;;12.26;71.06;100326.63;4991410;28;20564;-62
2022/09/26 03:41:19;;;;;;;11.00;8.95;;;;;;;12.38;71.47;100355.44;4992861;28;20034;-68
2022/09/26 03:43:44;;;;;;;9.88;8.25;;;;;;;12.30;72.28;100356.97;5013496;28;20026;-64
2022/09/26 03:46:11;;;;;;;12.23;9.00;;;;;;;12.10;73.11;100380.56;5013720;28;20092;-65
2022/09/26 03:48:37;;;;;;;10.43;9.10;;;;;;;11.81;74.26;100379.63;5013582;28;20050;-63
2022/09/26 03:51:05;;;;;;;11.30;9.32;;;;;;;11.54;76.17;100384.81;5013191;28;20044;-66
2022/09/26 03:53:34;;;;;;;17.40;9.70;;;;;;;11.27;77.79;100385.72;5013301;28;20026;-62
2022/09/26 03:56:12;;;;;;;13.77;9.30;;;;;;;11.26;78.36;100384.81;5012746;28;20022;-65
2022/09/26 03:58:38;;;;;;;11.10;9.35;;;;;;;11.40;77.97;100376.63;5013120;28;20038;-62
2022/09/26 04:01:06;;;;;;;12.70;9.23;;;;;;;11.54;77.61;100374.47;5012896;28;20021;-63
2022/09/26 04:03:36;;;;;;;10.23;8.93;;;;;;;11.68;76.31;100369.78;5013297;28;20030;-63
2022/09/26 04:06:03;;;;;;;11.88;9.70;;;;;;;11.74;75.66;100373.41;5012717;28;20424;-64
2022/09/26 04:08:29;;;;;;;12.60;9.55;;;;;;;11.71;74.74;100369.84;5012962;28;20562;-63
2022/09/26 04:11:07;;;;;;;17.40;10.35;;;;;;;11.37;76.08;100366.22;5012599;28;20021;-63
2022/09/26 04:13:33;;;;;;;14.88;9.75;;;;;;;11.22;76.04;100382.97;5026744;28;20053;-63
2022/09/26 04:16:00;;;;;;;11.30;9.18;;;;;;;11.24;76.45;100373.56;5013025;28;20066;-68
2022/09/26 04:18:26;;;;;;;13.38;8.93;;;;;;;11.12;76.57;100365.41;5012561;28;20389;-63
2022/09/26 04:21:13;;;;;;;12.38;9.65;;;;;;;10.99;77.47;100371.84;5044618;28;20044;-63
2022/09/26 04:23:39;;;;;;;14.68;9.30;;;;;;;10.94;77.77;100369.16;5010133;28;20048;-63
2022/09/26 04:26:09;;;;;;;11.25;8.77;;;;;;;10.58;76.65;100287.03;5012582;28;20030;-66
2022/09/26 04:28:35;;;;;;;11.48;8.88;;;;;;;11.11;78.38;100361.06;5001394;28;20449;-67
2022/09/26 04:31:03;;;;;;;12.38;8.57;;;;;;;11.28;77.50;100353.88;4993310;28;20061;-66
2022/09/26 04:33:31;;;;;;;11.50;8.13;;;;;;;11.20;78.54;100320.00;5008544;28;20068;-63
2022/09/26 04:35:59;;;;;;;10.57;8.65;;;;;;;11.32;78.55;100322.13;5012576;28;20029;-66
2022/09/26 04:38:31;;;;;;;9.57;8.47;;;;;;;11.69;77.05;100361.16;5012262;28;20425;-65
2022/09/26 04:40:57;;;;;;;14.23;8.77;;;;;;;11.80;75.82;100364.94;5012475;28;20408;-66
2022/09/26 04:43:22;;;;;;;11.20;8.32;;;;;;;11.92;74.92;100374.78;5012340;28;20389;-63
2022/09/26 04:45:48;;;;;;;12.13;8.38;;;;;;;11.76;74.51;100345.00;5012474;28;20095;-62
2022/09/26 04:48:14;;;;;;;11.60;7.80;;;;;;;11.94;74.17;100374.00;5012203;28;20180;-65
2022/09/26 04:50:39;;;;;;;10.88;8.23;;;;;;;11.97;73.74;100368.06;5012255;28;20030;-67
2022/09/26 04:53:05;;;;;;;15.55;8.80;;;;;;;11.98;73.67;100375.88;5012464;28;20025;-67
2022/09/26 04:55:32;;;;;;;10.43;8.25;;;;;;;11.91;74.44;100361.00;5012068;28;20567;-63
2022/09/26 04:57:57;;;;;;;11.48;8.63;;;;;;;11.95;74.40;100375.78;5011890;28;20048;-65
2022/09/26 05:00:22;;;;;;;13.98;9.15;;;;;;;11.87;74.57;100378.97;5012247;28;20112;-66
2022/09/26 05:02:48;;;;;;;10.75;8.25;;;;;;;11.85;74.34;100372.84;5009535;28;20045;-65
2022/09/26 05:05:14;;;;;;;15.20;9.95;;;;;;;11.82;74.85;100359.00;5012186;28;20120;-65
2022/09/26 05:07:40;;;;;;;9.70;8.32;;;;;;;11.94;74.52;100371.41;5011068;28;20051;-68
2022/09/26 05:10:09;;;;;;;13.40;9.60;;;;;;;11.79;74.21;100333.03;5011118;28;20030;-64
2022/09/26 05:12:38;;;;;;;50.55;26.92;;;;;;;12.11;73.97;100377.13;5013557;28;20121;-63
2022/09/26 05:15:10;;;;;;;82.95;48.05;;;;;;;12.06;74.25;100363.19;5009182;28;20022;-64
2022/09/26 05:17:36;;;;;;;20.98;18.00;;;;;;;12.17;74.18;100372.97;5010027;28;20028;-62
2022/09/26 05:20:07;;;;;;;17.77;10.88;;;;;;;12.10;74.40;100375.38;5008230;28;20034;-64
2022/09/26 05:22:33;;;;;;;12.55;10.15;;;;;;;12.10;74.34;100371.88;5011115;28;20038;-67
2022/09/26 05:27:43;;;;;;;12.73;9.02;;;;;;;12.19;74.77;100368.72;5010174;28;20048;-63
2022/09/26 05:30:11;;;;;;;10.75;8.02;;;;;;;12.29;75.02;100376.78;5011295;28;20030;-63
2022/09/26 05:32:36;;;;;;;10.13;8.50;;;;;;;12.37;74.23;100376.13;5012839;28;20477;-63
2022/09/26 05:35:04;;;;;;;11.55;8.20;;;;;;;12.34;74.18;100373.47;5012991;28;20033;-64
2022/09/26 05:37:30;;;;;;;11.38;8.30;;;;;;;12.35;74.41;100378.66;5012845;28;20030;-64
2022/09/26 05:42:39;;;;;;;10.00;8.10;;;;;;;12.45;75.15;100370.31;5009919;28;20068;-68
2022/09/26 05:45:05;;;;;;;9.82;8.38;;;;;;;12.50;75.79;100379.91;4992107;28;20488;-63
2022/09/26 05:47:35;;;;;;;13.32;8.68;;;;;;;12.60;75.61;100376.75;5011133;28;20061;-63
2022/09/26 05:50:08;;;;;;;;;;;;;;;12.67;76.61;100380.38;5010649;28;20499;-66
2022/09/26 05:52:34;;;;;;;10.73;8.10;;;;;;;12.78;76.49;100381.53;5008078;28;19924;-63
2022/09/26 05:55:00;;;;;;;11.55;8.90;;;;;;;12.75;77.60;100366.81;5010837;28;20044;-66
2022/09/26 05:57:25;;;;;;;11.75;9.15;;;;;;;12.70;78.92;100391.72;5009812;28;20026;-67
2022/09/26 05:59:51;;;;;;;17.60;9.20;;;;;;;12.58;80.63;100401.72;5009865;28;20022;-66
2022/09/26 06:02:16;;;;;;;22.02;16.30;;;;;;;12.57;80.87;100369.78;5010489;28;20042;-66
2022/09/26 06:04:42;;;;;;;17.08;12.55;;;;;;;12.90;80.40;100399.16;5010464;28;20446;-67
2022/09/26 06:07:07;;;;;;;15.15;9.13;;;;;;;13.02;80.77;100386.50;5010528;28;20030;-63
2022/09/26 06:09:32;;;;;;;9.75;8.20;;;;;;;13.18;80.30;100379.97;5010201;28;20105;-66
2022/09/26 06:11:58;;;;;;;10.27;8.35;;;;;;;13.33;80.18;100373.41;5025027;28;20503;-62
2022/09/26 06:14:25;;;;;;;9.68;7.88;;;;;;;13.53;79.14;100374.81;5010645;28;20034;-66
2022/09/26 06:16:51;;;;;;;9.90;8.25;;;;;;;13.37;77.81;100318.19;5010485;28;20503;-66
2022/09/26 06:19:16;;;;;;;9.68;7.38;;;;;;;13.77;77.16;100372.72;5010130;28;20112;-66
2022/09/26 06:21:42;;;;;;;9.00;7.30;;;;;;;13.82;76.61;100356.44;5010623;28;20018;-65
2022/09/26 06:24:09;;;;;;;7.47;6.10;;;;;;;13.86;74.82;100336.63;5010182;28;20412;-63
2022/09/26 06:26:36;;;;;;;9.15;7.20;;;;;;;14.10;74.01;100361.34;5010618;28;20026;-65
2022/09/26 06:29:02;;;;;;;7.13;6.32;;;;;;;14.27;71.58;100375.53;5010215;28;20057;-65
2022/09/26 06:31:28;;;;;;;9.80;7.10;;;;;;;14.46;71.33;100375.91;5010238;28;20066;-61
2022/09/26 06:33:54;;;;;;;9.32;6.68;;;;;;;14.67;69.96;100373.72;5007240;28;20033;-64
2022/09/26 06:36:23;;;;;;;14.15;8.05;;;;;;;14.79;70.06;100377.41;5010077;28;20021;-66
2022/09/26 06:38:48;;;;;;;8.10;6.75;;;;;;;14.79;69.61;100346.22;5010095;28;20492;-66
2022/09/26 06:41:15;;;;;;;9.32;6.88;;;;;;;15.12;68.54;100371.06;5010341;28;20068;-66
2022/09/26 06:43:44;;;;;;;9.40;6.40;;;;;;;15.14;68.33;100372.84;5010263;28;20030;-66
2022/09/26 06:46:10;;;;;;;12.33;6.90;;;;;;;15.19;68.80;100376.38;5027081;28;20037;-63
2022/09/26 06:48:35;;;;;;;8.82;6.32;;;;;;;15.20;69.29;100387.66;5014220;28;20308;-63
2022/09/26 06:51:01;;;;;;;9.85;6.60;;;;;;;15.11;69.39;100346.75;5014527;28;20179;-62
2022/09/26 06:53:27;;;;;;;8.60;6.45;;;;;;;15.47;68.36;100360.34;5014660;28;20576;-63
2022/09/26 06:55:53;;;;;;;9.30;6.53;;;;;;;15.61;68.22;100358.78;5014337;28;20041;-68
2022/09/26 06:58:18;;;;;;;8.98;6.63;;;;;;;15.83;67.87;100365.22;5045296;28;20037;-65
2022/09/26 07:00:44;;;;;;;9.70;6.43;;;;;;;16.08;66.31;100360.34;5014589;28;20413;-65
2022/09/26 07:03:10;;;;;;;6.32;5.38;;;;;;;16.12;66.55;100364.72;5014088;28;20038;-63
2022/09/26 07:05:36;;;;;;;8.45;5.75;;;;;;;16.24;66.54;100363.16;5014348;28;20156;-65
2022/09/26 07:08:02;;;;;;;7.28;5.32;;;;;;;16.41;65.20;100364.22;5014455;28;20061;-62
2022/09/26 07:10:33;;;;;;;9.07;6.50;;;;;;;16.59;64.89;100357.44;5045909;28;20026;-67
2022/09/26 07:13:03;;;;;;;7.75;5.45;;;;;;;16.34;65.75;100362.38;5014033;28;20500;-67
2022/09/26 07:15:46;;;;;;;7.30;5.38;;;;;;;16.59;65.68;100358.31;5051050;28;20044;-63
2022/09/26 07:18:12;;;;;;;6.97;5.40;;;;;;;16.80;65.58;100357.66;5051365;28;20487;-66
2022/09/26 07:20:46;;;;;;;9.20;5.80;;;;;;;16.91;65.54;100363.00;5034416;28;20041;-66
2022/09/26 07:23:15;;;;;;;7.28;5.68;;;;;;;17.16;62.85;100346.69;5051303;28;20115;-63
2022/09/26 07:25:44;;;;;;;8.80;5.22;;;;;;;17.32;62.24;100345.06;5050958;28;20045;-67
2022/09/26 07:28:10;;;;;;;8.07;5.28;;;;;;;17.36;62.47;100346.84;5051084;28;20120;-66
2022/09/26 07:30:35;;;;;;;7.88;5.53;;;;;;;17.50;61.65;100342.59;5051033;28;20139;-70
2022/09/26 07:33:02;;;;;;;7.65;4.93;;;;;;;17.66;61.46;100350.50;5051023;28;20044;-64
2022/09/26 07:35:32;;;;;;;7.05;4.82;;;;;;;17.77;61.81;100339.28;5050910;28;20507;-65
2022/09/26 07:37:58;;;;;;;10.50;5.32;;;;;;;17.99;60.84;100342.00;5051159;28;20036;-69
2022/09/26 07:40:24;;;;;;;8.63;5.03;;;;;;;18.06;59.57;100340.31;5050833;28;20037;-68
2022/09/26 07:42:51;;;;;;;12.60;8.25;;;;;;;18.18;59.54;100329.91;5050876;28;20637;-63
2022/09/26 07:50:09;;;;;;;13.95;6.03;;;;;;;18.40;59.02;100312.53;5050643;28;20460;-64
2022/09/26 07:50:57;;;;;;;7.93;5.05;;;;;;;18.37;59.16;100275.09;5013378;28;20117;-64
2022/09/26 07:53:24;;;;;;;8.18;5.55;;;;;;;18.64;58.85;100297.78;5013666;28;20402;-65
2022/09/26 07:56:05;;;;;;;10.88;6.07;;;;;;;18.78;59.42;100287.31;5013214;28;20480;-63
2022/09/26 07:58:35;;;;;;;8.52;6.15;;;;;;;18.85;57.81;100286.44;5013192;28;20503;-63
2022/09/26 08:01:01;;;;;;;8.32;5.72;;;;;;;18.99;57.52;100298.66;5012206;28;20033;-64
2022/09/26 08:03:27;;;;;;;6.97;5.40;;;;;;;19.05;57.72;100281.25;5012870;28;20033;-64
2022/09/26 08:05:58;;;;;;;7.43;5.22;;;;;;;19.21;56.32;100289.06;5013356;28;20032;-63
2022/09/26 08:08:24;;;;;;;7.80;4.90;;;;;;;19.19;57.12;100294.31;5013216;28;20025;-66
2022/09/26 08:10:50;;;;;;;6.70;5.00;;;;;;;19.08;58.24;100294.31;5013084;28;20032;-63
2022/09/26 08:13:15;;;;;;;9.02;5.22;;;;;;;19.17;57.20;100295.19;5013127;28;20034;-66
2022/09/26 08:15:41;;;;;;;6.63;4.43;;;;;;;19.26;56.26;100289.06;5012908;28;20084;-68
2022/09/26 08:18:06;;;;;;;5.63;4.97;;;;;;;19.27;56.62;100283.81;5012977;28;20100;-69
2022/09/26 08:20:32;;;;;;;6.15;4.50;;;;;;;19.37;56.31;100285.53;5012952;28;20113;-63
2022/09/26 08:22:58;;;;;;;6.75;5.00;;;;;;;19.46;55.28;100268.94;5012877;28;20033;-63
2022/09/26 08:25:24;;;;;;;6.88;4.53;;;;;;;19.62;55.37;100285.47;5012831;28;20577;-69
2022/09/26 08:27:50;;;;;;;6.75;5.10;;;;;;;19.77;55.09;100279.31;5012626;28;20034;-68
2022/09/26 08:30:15;;;;;;;8.95;4.57;;;;;;;20.01;56.07;100285.34;5011428;28;20465;-69
2022/09/26 08:32:41;;;;;;;6.68;4.32;;;;;;;20.10;56.68;100281.81;5012486;28;20112;-63
2022/09/26 08:35:11;;;;;;;9.23;4.70;;;;;;;20.15;56.77;100267.81;5012643;28;20042;-63
2022/09/26 08:37:36;;;;;;;6.30;4.80;;;;;;;20.41;56.96;100276.38;5012727;28;20026;-66
2022/09/26 08:40:02;;;;;;;8.07;5.07;;;;;;;20.57;56.17;100271.91;5012624;28;20415;-64
2022/09/26 08:42:39;;;;;;;6.22;4.63;;;;;;;20.74;56.29;100267.44;5012382;28;20049;-64
2022/09/26 08:48:42;;;;;;;10.30;5.13;;;;;;;20.48;56.91;100257.97;5012553;28;20104;-66
2022/09/26 08:51:17;;;;;;;8.00;4.63;;;;;;;20.56;56.84;100254.44;5009647;28;20044;-66
2022/09/26 08:54:09;;;;;;;8.05;4.68;;;;;;;20.69;57.05;100250.84;5009922;28;20118;-63
2022/09/26 08:56:39;;;;;;;6.18;4.22;;;;;;;20.77;56.23;100243.81;4970579;28;20039;-64
2022/09/26 08:59:10;;;;;;;5.93;4.43;;;;;;;20.94;56.45;100235.75;4970669;28;20066;-67
2022/09/26 09:01:39;;;;;;;7.60;4.40;;;;;;;20.80;55.77;100191.28;4970475;28;20047;-65
2022/09/26 09:04:43;;;;;;;5.55;4.43;;;;;;;21.19;54.42;100221.53;4970659;28;20031;-63
2022/09/26 09:07:23;;;;;;;5.38;3.90;;;;;;;21.38;53.28;100227.44;4970674;28;20113;-63
2022/09/26 09:09:58;;;;;;;6.80;4.05;;;;;;;21.16;55.22;100186.53;4969865;28;20034;-64
2022/09/26 09:12:50;;;;;;;7.05;3.88;;;;;;;21.63;52.73;100210.53;4970419;28;20041;-64
2022/09/26 09:15:27;;;;;;;6.05;3.58;;;;;;;21.87;52.01;100213.72;4970363;28;20043;-67
2022/09/26 09:17:58;;;;;;;5.25;3.58;;;;;;;21.94;52.51;100210.13;4970479;28;20106;-63
2022/09/26 09:20:42;;;;;;;6.22;4.10;;;;;;;22.14;52.52;100196.69;4970219;28;20039;-64
2022/09/26 09:23:32;;;;;;;4.65;3.63;;;;;;;22.09;52.36;100158.19;4970420;28;20043;-63
2022/09/26 09:26:19;;;;;;;6.95;4.32;;;;;;;21.82;52.72;100136.72;4970254;28;20027;-64
2022/09/26 09:29:24;;;;;;;8.68;3.97;;;;;;;22.29;52.17;100173.66;4970095;28;20046;-66
2022/09/26 09:31:50;;;;;;;5.25;3.75;;;;;;;22.44;52.22;100178.72;4989378;28;20129;-66
2022/09/26 09:34:30;;;;;;;7.03;3.92;;;;;;;22.72;50.67;100190.53;5020682;28;20041;-63
2022/09/26 09:37:02;;;;;;;6.60;3.85;;;;;;;22.87;51.70;100186.75;5011957;28;20107;-62
2022/09/26 09:39:35;;;;;;;5.88;3.53;;;;;;;23.07;49.54;100183.72;5028648;28;20043;-66
2022/09/26 09:42:30;;;;;;;4.68;3.40;;;;;;;23.13;49.86;100185.38;5028517;28;20029;-62
2022/09/26 09:45:19;;;;;;;13.60;4.40;;;;;;;23.23;50.66;100184.34;5028565;28;20415;-64
2022/09/26 09:47:45;;;;;;;6.80;3.50;;;;;;;23.31;50.25;100187.66;5028302;28;20448;-64
2022/09/26 09:50:17;;;;;;;10.13;4.22;;;;;;;23.20;52.08;100179.13;5028157;28;20080;-65
2022/09/26 09:53:24;;;;;;;5.65;3.80;;;;;;;22.75;50.99;100182.56;5028292;28;20041;-64
2022/09/26 09:55:59;;;;;;;5.28;3.75;;;;;;;22.67;54.41;100177.44;5028378;28;20049;-67
2022/09/26 09:58:32;;;;;;;5.70;4.10;;;;;;;22.69;51.59;100180.03;5028357;28;20030;-65
2022/09/26 10:01:30;;;;;;;5.15;3.67;;;;;;;22.82;53.57;100170.16;5028362;28;20063;-65
2022/09/26 10:04:26;;;;;;;5.15;3.38;;;;;;;23.22;50.28;100154.47;4969662;28;20607;-64
2022/09/26 10:06:54;;;;;;;4.25;3.20;;;;;;;23.50;49.72;100146.00;4969666;28;20042;-64
2022/09/26 10:09:31;;;;;;;8.48;3.67;;;;;;;23.43;49.43;100132.09;4956926;28;20066;-70
2022/09/26 10:11:58;;;;;;;5.50;3.63;;;;;;;23.62;49.23;100144.84;4950080;29;20082;-67
2022/09/26 10:14:35;;;;;;;4.53;3.55;;;;;;;23.92;49.61;100136.34;4949968;28;20117;-64
2022/09/26 10:17:09;;;;;;;4.38;3.50;;;;;;;24.26;47.74;100135.50;4966200;28;20035;-67
2022/09/26 10:19:37;;;;;;;4.85;3.90;;;;;;;24.27;47.32;100124.03;4949784;29;20530;-64
2022/09/26 10:22:17;;;;;;;6.20;3.90;;;;;;;24.33;46.91;100139.72;4949755;29;20046;-64
2022/09/26 10:24:45;;;;;;;6.55;3.75;;;;;;;24.32;47.24;100135.34;4950075;28;20058;-64
2022/09/26 10:27:34;;;;;;;5.75;3.60;;;;;;;24.54;47.64;100123.31;4950069;29;20050;-63
2022/09/26 10:30:02;;;;;;;4.40;3.65;;;;;;;24.63;46.17;100119.56;4950078;29;20050;-66
2022/09/26 10:32:28;;;;;;;6.30;3.80;;;;;;;24.48;46.24;100106.78;4949859;28;20187;-64
2022/09/26 10:35:06;;;;;;;4.78;3.50;;;;;;;24.51;46.19;100077.66;4949911;29;20641;-69
2022/09/26 10:37:35;;;;;;;8.55;3.83;;;;;;;24.70;45.92;100078.94;4950056;29;20118;-66
2022/09/26 10:42:47;;;;;;;9.50;3.53;;;;;;;24.97;46.19;100094.03;4991217;28;20041;-67
2022/09/26 10:45:20;;;;;;;10.70;3.85;;;;;;;25.30;45.12;100089.53;4990814;28;20033;-64
2022/09/26 10:47:50;;;;;;;4.07;3.20;;;;;;;25.37;44.29;100055.88;4991037;28;20109;-64
2022/09/26 10:50:24;;;;;;;7.20;3.90;;;;;;;25.53;45.17;100064.19;4990748;28;20041;-68
2022/09/26 10:53:13;;;;;;;4.53;3.38;;;;;;;25.54;44.11;100057.16;4990798;28;20072;-67
2022/09/26 10:55:48;;;;;;;6.27;3.87;;;;;;;25.51;44.16;100060.75;4991201;28;20128;-67
2022/09/26 10:58:26;;;;;;;9.43;3.90;;;;;;;25.39;44.40;100048.78;5006222;28;20030;-65
2022/09/26 11:00:53;;;;;;;4.88;3.50;;;;;;;25.54;44.44;100023.66;4990833;28;20477;-63
2022/09/26 11:03:22;;;;;;;7.95;3.50;;;;;;;25.85;43.14;100041.16;4990870;28;20031;-64
2022/09/26 11:05:56;;;;;;;4.53;2.90;;;;;;;25.84;42.78;100036.78;4990773;28;20488;-68
2022/09/26 11:08:25;;;;;;;8.70;5.90;;;;;;;25.79;43.40;100031.63;4991081;28;20493;-68
2022/09/26 11:10:51;;;;;;;;;;;;;;;25.83;44.12;100033.28;4991363;28;20150;-68
2022/09/26 11:13:18;;;;;;;10.60;7.63;;;;;;;25.90;42.83;100033.94;5021519;28;19921;-63
2022/09/26 11:16:07;;;;;;;7.50;5.45;;;;;;;25.96;42.97;100033.72;4990775;28;20038;-65
2022/09/26 11:18:57;;;;;;;6.72;4.88;;;;;;;26.04;43.92;100035.25;4990687;28;20034;-64
2022/09/26 11:21:41;;;;;;;12.30;8.75;;;;;;;26.06;43.56;100033.44;4990789;28;20038;-63
2022/09/26 11:24:23;;;;;;;6.22;2.88;;;;;;;26.00;42.64;100030.03;4990964;28;20061;-64
2022/09/26 11:27:14;;;;;;;22.27;15.02;;;;;;;26.12;43.01;100025.28;4990450;28;20030;-64
2022/09/26 11:29:46;;;;;;;8.52;4.75;;;;;;;26.05;43.86;100029.03;4990114;28;20038;-64
2022/09/26 11:32:41;;;;;;;8.63;4.30;;;;;;;26.14;44.10;100019.03;4992188;28;20030;-63
2022/09/26 11:35:16;;;;;;;7.93;4.57;;;;;;;26.23;42.98;100015.22;4994351;28;20041;-64
2022/09/26 11:38:05;;;;;;;6.32;3.65;;;;;;;26.10;43.47;100017.41;4994412;28;20026;-64
2022/09/26 11:40:42;;;;;;;4.90;3.50;;;;;;;26.10;43.43;100009.47;4991343;28;20043;-65
2022/09/26 11:43:45;;;;;;;4.10;2.95;;;;;;;26.13;42.50;100008.50;4991589;28;20074;-67
2022/09/26 11:46:47;;;;;;;7.57;3.08;;;;;;;26.07;42.74;99998.13;4991262;28;20129;-66
2022/09/26 11:49:49;;;;;;;4.47;3.35;;;;;;;26.01;43.70;99993.91;4991681;28;20046;-64
2022/09/26 11:52:32;;;;;;;13.80;5.50;;;;;;;26.05;43.35;99992.00;4991477;28;20038;-64
2022/09/26 11:55:18;;;;;;;5.10;3.08;;;;;;;26.08;43.10;99997.22;4991277;28;20499;-64
2022/09/26 11:58:04;;;;;;;4.78;3.03;;;;;;;25.95;43.04;99988.81;4933616;29;20066;-66